Adrian, Missouri
Current Conditions -  °F | °C
As of 1:15 PM on Saturday 20 Dec 2014 (Local Time) from KGLY Reporting Station
Overcast Overcast  
Wind Chill: 35°   Ceiling: 1500
Heat Index: 41°   Visibility: 7mi
Dew Point: 37°   Wind: 9mph
Humidity: 87%   Direction: 220°SW
Pressure: 30.19"   Gusts: NA
Location:  38.4°N, 94.35°W
Report Text: KGLY 201915Z AUTO 22008KT 7SM OVC015 05/03 A3019 RMK AO2
Loading
Personal Weather Stations






























Interactive Weather Map New forecast layout! Learn more

10-Day Weather Forecast

Advertisements
Track Severe Weather on mobile